Time;durP1;ratioP1;P1;durP2;ratioP2;P2;SDS_P1;SDS_P2;PMS_P1;PMS_P2;Temp;Humidity;BMP_temperature;BMP_pressure;BME280_temperature;BME280_humidity;BME280_pressure;Samples;Min_cycle;Max_cycle;Signal;HPM_P1;HPM_P2
2021/06/26 00:01:48;;;;;;;2.20;2.00;;;10.70;99.90;;;11.03;100.00;95418.00;2499009;53;26918;-52
2021/06/26 00:04:35;;;;;;;5.70;2.17;;;10.70;99.90;;;10.98;100.00;95421.00;2218667;56;27173;-51
2021/06/26 00:07:21;;;;;;;4.50;2.33;;;10.60;99.90;;;10.97;100.00;95420.00;2434701;55;27453;-52
2021/06/26 00:10:12;;;;;;;2.50;2.10;;;10.60;99.90;;;10.95;100.00;95406.00;2425124;55;26817;-51
2021/06/26 00:12:58;;;;;;;4.30;2.40;;;10.60;99.90;;;10.99;100.00;95410.00;2427443;55;27426;-51
2021/06/26 00:21:38;;;;;;;2.50;2.30;;;10.60;99.90;;;11.14;100.00;95392.00;2376884;55;35285;-51
2021/06/26 00:24:24;;;;;;;2.97;2.10;;;10.60;99.90;;;11.03;100.00;95408.00;2144871;56;26657;-52
2021/06/26 00:27:11;;;;;;;3.03;2.43;;;10.50;99.90;;;10.98;100.00;95407.00;2133643;56;27321;-52
2021/06/26 00:29:57;;;;;;;3.07;2.30;;;10.50;99.90;;;10.93;100.00;95402.00;2359730;56;26980;-52
2021/06/26 00:32:44;;;;;;;2.60;2.07;;;10.40;99.90;;;10.74;100.00;95413.00;2164857;57;27303;-51
2021/06/26 00:35:30;;;;;;;3.27;2.40;;;10.40;99.90;;;10.79;100.00;95401.00;2380181;56;27668;-52
2021/06/26 00:38:17;;;;;;;2.87;2.30;;;10.50;99.90;;;10.83;100.00;95414.00;2184533;57;26604;-51
2021/06/26 00:41:04;;;;;;;2.30;2.03;;;10.50;99.90;;;10.85;100.00;95413.00;2397907;56;26304;-52
2021/06/26 00:46:50;;;;;;;4.90;2.33;;;10.70;99.90;;;11.25;100.00;95384.00;2513788;52;33728;-51
2021/06/26 00:49:37;;;;;;;5.13;2.53;;;10.70;99.90;;;11.08;100.00;95400.00;2264134;55;26123;-52
2021/06/26 00:55:21;;;;;;;4.10;2.60;;;10.70;99.90;;;11.21;100.00;95375.00;2342703;56;35212;-52
2021/06/26 00:58:07;;;;;;;3.50;2.50;;;10.60;99.90;;;10.91;100.00;95388.00;2135801;58;26921;-51
2021/06/26 01:00:54;;;;;;;3.73;2.67;;;10.40;99.90;;;10.74;100.00;95385.00;2349006;57;26639;-52
2021/06/26 01:03:42;;;;;;;4.43;2.30;;;10.40;99.90;;;10.65;100.00;95386.00;2335418;57;27222;-51
2021/06/26 01:09:25;;;;;;;4.20;2.40;;;10.40;99.90;;;10.94;100.00;95360.00;2384038;55;34224;-51
2021/06/26 01:12:12;;;;;;;5.67;2.27;;;10.40;99.90;;;10.65;100.00;95378.00;2387265;55;28339;-51
2021/06/26 01:14:58;;;;;;;2.70;2.50;;;10.30;99.90;;;10.64;100.00;95379.00;2177953;56;27255;-51
2021/06/26 01:17:45;;;;;;;2.57;2.30;;;10.30;99.90;;;10.58;100.00;95380.00;2380036;55;27278;-52
2021/06/26 01:20:31;;;;;;;4.27;2.30;;;10.30;99.90;;;10.62;100.00;95375.00;2175990;57;26689;-52
2021/06/26 01:23:18;;;;;;;3.03;2.50;;;10.30;99.90;;;10.71;100.00;95368.00;2399659;55;26922;-50
2021/06/26 01:26:06;;;;;;;6.17;3.40;;;10.30;99.90;;;10.78;100.00;95370.00;2162861;57;26833;-52
2021/06/26 01:28:52;;;;;;;7.53;3.83;;;10.30;99.90;;;10.59;100.00;95366.00;2165964;57;26790;-52
2021/06/26 01:31:39;;;;;;;9.03;4.30;;;10.20;99.90;;;10.54;100.00;95367.00;2402816;55;26634;-51
2021/06/26 01:34:25;;;;;;;14.50;4.50;;;10.20;99.90;;;10.55;100.00;95370.00;2403172;55;26717;-52
2021/06/26 01:40:15;;;;;;;7.03;3.80;;;10.20;99.90;;;10.64;100.00;95348.00;2451643;54;35156;-51
2021/06/26 01:45:59;;;;;;;5.40;3.70;;;10.00;99.90;;;10.49;100.00;95350.00;2451231;54;34361;-52
2021/06/26 01:48:45;;;;;;;4.40;3.13;;;10.00;99.90;;;10.42;100.00;95364.00;2462632;53;27027;-52
2021/06/26 01:51:34;;;;;;;3.97;3.57;;;10.00;99.90;;;10.37;100.00;95369.00;2243857;53;27010;-52
2021/06/26 01:54:21;;;;;;;5.20;3.50;;;10.00;99.90;;;10.23;100.00;95362.00;2241924;53;26775;-56
2021/06/26 02:00:08;;;;;;;3.60;3.30;;;10.00;99.90;;;10.44;100.00;95344.00;2397532;55;34490;-52
2021/06/26 02:02:54;;;;;;;4.40;3.27;;;10.00;99.90;;;10.37;100.00;95363.00;2190650;56;27314;-52
2021/06/26 02:08:39;;;;;;;12.87;3.70;;;9.90;99.90;;;10.37;100.00;95335.00;2382968;55;34090;-51
2021/06/26 02:11:25;;;;;;;20.60;3.40;;;10.00;99.90;;;10.31;100.00;95353.00;2174266;56;27388;-52
2021/06/26 02:14:12;;;;;;;7.70;3.17;;;10.00;99.90;;;10.40;100.00;95364.00;2186174;56;27159;-52
2021/06/26 02:16:58;;;;;;;3.77;3.20;;;9.90;99.90;;;10.27;100.00;95355.00;2393912;56;27061;-52
2021/06/26 02:19:44;;;;;;;3.80;2.83;;;9.90;99.90;;;10.35;100.00;95358.00;2163938;58;27465;-52
2021/06/26 02:22:31;;;;;;;3.20;2.90;;;9.90;99.90;;;10.30;100.00;95354.00;2375513;56;26210;-51
2021/06/26 02:25:18;;;;;;;5.27;2.90;;;9.80;99.90;;;10.08;100.00;95345.00;2161111;58;26771;-52
2021/06/26 02:28:05;;;;;;;3.17;2.67;;;9.70;99.90;;;10.01;100.00;95350.00;2366567;56;26949;-51
2021/06/26 02:30:52;;;;;;;4.10;2.87;;;9.70;99.90;;;10.01;100.00;95350.00;2163007;58;26668;-52
2021/06/26 02:33:38;;;;;;;3.67;2.70;;;9.60;99.90;;;9.91;100.00;95362.00;2374857;56;26179;-53
2021/06/26 02:36:24;;;;;;;3.03;2.73;;;9.60;99.90;;;9.89;100.00;95361.00;2163937;58;26944;-52
2021/06/26 02:39:11;;;;;;;3.43;2.80;;;9.60;99.90;;;9.94;100.00;95362.00;2382935;55;26717;-51
2021/06/26 02:41:57;;;;;;;5.00;2.40;;;9.60;99.90;;;10.00;100.00;95358.00;2395540;55;26746;-52
2021/06/26 02:44:43;;;;;;;3.07;2.33;;;9.50;99.90;;;9.84;100.00;95348.00;2177118;55;26769;-53
2021/06/26 02:47:30;;;;;;;5.33;2.20;;;9.50;99.90;;;9.82;100.00;95356.00;2176500;55;26255;-54
2021/06/26 02:53:12;;;;;;;102.33;5.93;;;9.50;99.90;;;10.01;100.00;95331.00;2379302;55;33693;-53
2021/06/26 02:55:59;;;;;;;17.73;3.90;;;9.40;99.90;;;9.80;100.00;95350.00;2367509;56;27105;-51
2021/06/26 02:58:45;;;;;;;84.43;6.33;;;9.40;99.90;;;9.83;100.00;95358.00;2365373;56;26871;-51
2021/06/26 03:01:31;;;;;;;15.77;3.67;;;9.50;99.90;;;9.83;100.00;95357.00;2170911;56;26706;-51
2021/06/26 03:04:19;;;;;;;28.43;4.40;;;9.50;99.90;;;9.88;100.00;95360.00;2180632;57;26120;-51
2021/06/26 03:07:06;;;;;;;54.63;5.77;;;9.60;99.90;;;9.99;100.00;95365.00;2162473;57;26271;-53
2021/06/26 03:09:52;;;;;;;18.97;4.70;;;9.50;99.90;;;9.86;100.00;95362.00;2144951;56;27604;-52
2021/06/26 03:12:39;;;;;;;14.50;4.00;;;9.50;99.90;;;9.88;100.00;95365.00;2160145;56;26976;-51
2021/06/26 03:18:23;;;;;;;16.30;4.20;;;9.40;99.90;;;9.88;100.00;95340.00;2399270;54;33934;-52
2021/06/26 03:21:10;;;;;;;8.47;4.00;;;9.40;99.90;;;9.73;100.00;95361.00;2173618;56;27256;-51
2021/06/26 03:23:56;;;;;;;7.23;3.13;;;9.40;99.90;;;9.65;100.00;95356.00;2195423;56;26657;-51
2021/06/26 03:26:42;;;;;;;3.43;2.90;;;9.40;99.90;;;9.74;100.00;95348.00;2212483;56;27087;-51
2021/06/26 03:32:25;;;;;;;3.20;2.43;;;9.30;99.90;;;9.80;100.00;95334.00;2375707;55;35086;-52
2021/06/26 03:35:15;;;;;;;6.00;2.50;;;9.30;99.90;;;9.68;100.00;95346.00;2385327;56;26660;-51
2021/06/26 03:38:01;;;;;;;3.07;2.40;;;9.30;99.90;;;9.55;100.00;95348.00;2187347;56;26844;-52
2021/06/26 03:40:49;;;;;;;2.77;2.57;;;9.20;99.90;;;9.63;100.00;95351.00;2400128;56;27088;-51
2021/06/26 03:46:33;;;;;;;15.97;2.90;;;9.40;99.90;;;9.91;100.00;95334.00;2378832;55;34064;-51
2021/06/26 03:49:20;;;;;;;12.33;3.17;;;9.40;99.90;;;9.87;100.00;95351.00;2189218;55;26749;-52
2021/06/26 03:52:08;;;;;;;35.30;4.20;;;9.50;99.90;;;9.94;100.00;95352.00;2432056;55;26811;-51
2021/06/26 03:54:54;;;;;;;55.30;4.00;;;9.70;99.90;;;10.13;100.00;95354.00;2210645;55;26753;-51
2021/06/26 03:57:40;;;;;;;131.10;5.30;;;9.70;99.90;;;10.07;100.00;95355.00;2404859;56;27017;-55
2021/06/26 04:03:23;;;;;;;12.83;2.93;;;9.70;99.90;;;10.24;100.00;95334.00;2399754;55;34340;-52
2021/06/26 04:06:09;;;;;;;23.00;3.40;;;9.70;99.90;;;10.05;100.00;95344.00;2187848;56;26918;-52
2021/06/26 04:08:55;;;;;;;31.87;3.60;;;9.70;99.90;;;10.15;100.00;95344.00;2426383;55;26880;-52
2021/06/26 04:11:42;;;;;;;3.03;2.73;;;9.80;99.90;;;10.25;100.00;95347.00;2210429;56;26677;-51
2021/06/26 04:14:28;;;;;;;3.00;2.70;;;9.90;99.90;;;10.44;100.00;95357.00;2431893;55;26824;-51
2021/06/26 04:17:14;;;;;;;13.80;3.20;;;9.90;99.90;;;10.31;100.00;95354.00;2428461;55;27323;-51
2021/06/26 04:20:01;;;;;;;3.67;3.33;;;9.90;99.90;;;10.29;100.00;95351.00;2186859;57;26706;-52
2021/06/26 04:22:47;;;;;;;3.07;2.70;;;9.90;99.90;;;10.32;100.00;95355.00;2190171;56;26605;-51
2021/06/26 04:25:34;;;;;;;3.70;2.80;;;10.00;99.90;;;10.35;100.00;95357.00;2407963;55;26154;-51
2021/06/26 04:28:20;;;;;;;6.07;2.90;;;10.00;99.90;;;10.41;100.00;95368.00;2185547;56;26841;-51
2021/06/26 04:34:03;;;;;;;4.57;3.30;;;10.20;99.90;;;10.82;100.00;95348.00;2413014;54;33119;-51
2021/06/26 04:36:50;;;;;;;4.83;3.30;;;10.30;99.90;;;10.86;100.00;95356.00;2186474;56;26592;-52
2021/06/26 04:39:36;;;;;;;3.50;3.20;;;10.40;99.90;;;10.89;100.00;95361.00;2403554;55;26928;-51
2021/06/26 04:42:23;;;;;;;3.53;3.10;;;10.40;99.90;;;10.96;100.00;95358.00;2187836;56;26330;-52
2021/06/26 04:45:12;;;;;;;6.60;3.67;;;10.60;99.90;;;11.04;100.00;95360.00;2402771;55;26644;-52
2021/06/26 04:48:00;;;;;;;5.87;3.00;;;10.80;99.90;;;11.19;100.00;95358.00;2184634;56;26127;-51
2021/06/26 04:53:43;;;;;;;5.20;2.90;;;10.90;99.90;;;11.65;100.00;95332.00;2349810;56;34277;-52
2021/06/26 04:56:29;;;;;;;4.60;3.00;;;11.10;99.90;;;11.63;100.00;95355.00;2340128;58;26744;-52
2021/06/26 04:59:15;;;;;;;3.23;2.83;;;11.10;99.90;;;11.61;100.00;95356.00;2132165;57;26871;-52
2021/06/26 05:02:02;;;;;;;2.67;2.47;;;11.10;99.90;;;11.61;100.00;95347.00;2339160;57;26925;-52
2021/06/26 05:07:46;;;;;;;3.80;2.17;;;11.30;99.90;;;12.00;100.00;95331.00;2409094;55;33207;-51
2021/06/26 05:10:33;;;;;;;3.47;2.37;;;11.30;99.90;;;11.83;100.00;95351.00;2204325;56;27240;-51
2021/06/26 05:13:19;;;;;;;7.33;6.57;;;11.40;99.90;;;11.80;100.00;95345.00;2215177;55;27273;-52
2021/06/26 05:19:03;;;;;;;8.60;7.70;;;11.60;99.90;;;12.21;100.00;95323.00;2454010;54;34135;-51
2021/06/26 05:24:47;;;;;;;4.50;4.10;;;11.80;99.90;;;12.46;100.00;95327.00;2387867;55;33733;-51
2021/06/26 05:27:34;;;;;;;4.47;3.10;;;12.00;99.90;;;12.48;100.00;95347.00;2342020;56;26748;-52
2021/06/26 05:30:20;;;;;;;3.10;2.90;;;12.10;99.90;;;12.58;100.00;95346.00;2157920;56;26782;-54
2021/06/26 05:33:07;;;;;;;3.47;3.17;;;12.20;99.90;;;12.81;100.00;95340.00;2167908;57;26663;-52
2021/06/26 05:35:54;;;;;;;3.07;2.87;;;12.30;99.90;;;12.89;100.00;95336.00;2378771;56;26887;-52
2021/06/26 05:38:40;;;;;;;3.27;2.97;;;12.50;99.90;;;13.08;100.00;95336.00;2167092;57;26734;-52
2021/06/26 05:41:26;;;;;;;3.10;2.80;;;12.60;99.90;;;13.12;100.00;95335.00;2379047;56;26728;-52
2021/06/26 05:44:13;;;;;;;4.97;2.53;;;12.80;99.90;;;13.41;100.00;95337.00;2165931;57;26888;-55
2021/06/26 05:46:59;;;;;;;4.47;2.50;;;12.80;99.90;;;13.33;100.00;95332.00;2379152;56;27252;-52
2021/06/26 05:49:45;;;;;;;2.67;2.47;;;13.00;99.90;;;13.68;100.00;95335.00;2144250;57;27027;-52
2021/06/26 05:52:32;;;;;;;2.80;2.60;;;13.10;99.90;;;13.59;100.00;95334.00;2348424;57;26599;-52
2021/06/26 05:55:19;;;;;;;2.70;2.50;;;13.20;99.90;;;13.71;100.00;95338.00;2344713;57;26188;-52
2021/06/26 05:58:06;;;;;;;3.93;2.33;;;13.40;99.90;;;13.83;100.00;95334.00;2138523;57;26195;-52
2021/06/26 06:03:48;;;;;;;3.85;2.25;;;13.50;99.90;;;15.48;100.00;95299.00;2366678;55;34134;-51
2021/06/26 06:06:35;;;;;;;2.62;2.42;;;15.30;99.90;;;18.06;100.00;95303.00;2160351;56;27170;-52
2021/06/26 06:09:22;;;;;;;3.42;2.30;;;17.30;99.90;;;20.62;100.00;95279.00;2160261;56;26956;-53
2021/06/26 06:12:11;;;;;;;5.25;2.20;;;19.50;99.90;;;23.30;100.00;95280.00;2183223;56;26610;-53
2021/06/26 06:14:57;;;;;;;3.12;2.25;;;21.30;99.90;;;25.46;100.00;95276.00;2176892;56;26661;-53
2021/06/26 06:20:43;;;;;;;2.70;2.50;;;23.70;99.90;;;27.94;100.00;95264.00;2476331;54;34076;-53
2021/06/26 06:26:26;;;;;;;2.40;2.20;;;25.30;99.90;;;29.91;87.96;95252.00;2426095;54;34073;-53
2021/06/26 06:29:13;;;;;;;2.70;2.47;;;26.00;99.90;;;30.65;84.20;95254.00;2201252;55;26675;-53
2021/06/26 06:31:59;;;;;;;2.45;2.25;;;26.50;99.90;;;29.49;90.29;95247.00;2426035;55;27348;-51
2021/06/26 06:37:43;;;;;;;2.28;2.00;;;27.20;99.90;;;31.45;82.24;95246.00;2371049;55;34011;-51
2021/06/26 06:40:30;;;;;;;2.50;2.00;;;27.70;99.90;;;31.82;70.03;95257.00;2176608;56;26725;-51
2021/06/26 06:43:17;;;;;;;2.25;1.95;;;27.70;99.90;;;30.07;92.71;95256.00;2397079;55;25724;-51
2021/06/26 06:46:05;;;;;;;2.37;1.95;;;27.10;99.90;;;29.70;93.52;95253.00;2189782;56;25677;-51
2021/06/26 06:48:51;;;;;;;1.90;1.70;;;27.60;99.90;;;29.98;87.62;95253.00;2396099;56;26817;-50
2021/06/26 06:54:35;;;;;;;2.00;1.70;;;26.90;99.90;;;29.47;94.63;95243.00;2414671;54;34369;-53
2021/06/26 06:57:23;;;;;;;2.83;1.50;;;27.40;99.90;;;29.25;85.14;95242.00;2181418;56;25710;-51
2021/06/26 07:00:13;;;;;;;1.87;1.77;;;28.00;99.90;;;30.03;82.52;95242.00;2407951;55;32423;-51
2021/06/26 07:02:59;;;;;;;1.70;1.60;;;28.20;99.90;;;29.49;82.09;95247.00;2183296;56;26893;-51
2021/06/26 07:05:45;;;;;;;1.75;1.48;;;28.50;99.90;;;29.87;82.28;95246.00;2373054;56;26983;-51
2021/06/26 07:08:32;;;;;;;1.70;1.60;;;28.30;99.90;;;28.61;78.05;95247.00;2158983;56;25734;-52
2021/06/26 07:11:18;;;;;;;2.03;1.80;;;28.50;99.90;;;30.29;71.39;95245.00;2183873;55;27529;-51
2021/06/26 07:14:04;;;;;;;1.73;1.62;;;27.70;99.90;;;29.50;82.56;95235.00;2436148;55;26840;-50
2021/06/26 07:16:51;;;;;;;2.53;1.73;;;28.10;99.90;;;30.12;77.52;95232.00;2209769;56;26793;-50
2021/06/26 07:19:37;;;;;;;1.75;1.65;;;27.00;99.90;;;28.38;85.99;95226.00;2207300;56;27096;-50
2021/06/26 07:22:23;;;;;;;2.78;2.00;;;27.80;99.90;;;29.72;84.79;95224.00;2210709;55;26738;-51
2021/06/26 07:25:11;;;;;;;2.03;1.90;;;28.50;99.90;;;31.30;73.14;95227.00;2212572;56;26971;-50
2021/06/26 07:27:58;;;;;;;3.78;1.98;;;29.40;99.90;;;32.09;68.61;95227.00;2430149;55;25121;-51
2021/06/26 07:30:44;;;;;;;2.03;1.90;;;29.60;99.90;;;31.55;61.38;95232.00;2205870;56;25202;-50
2021/06/26 07:33:30;;;;;;;2.25;2.05;;;29.50;99.90;;;31.32;62.28;95229.00;2211836;56;26816;-50
2021/06/26 07:36:17;;;;;;;2.30;2.10;;;30.00;99.90;;;31.75;66.98;95215.00;2213534;56;26718;-50
2021/06/26 07:39:04;;;;;;;2.30;2.10;;;29.90;99.90;;;31.99;69.23;95226.00;2214163;56;26265;-50
2021/06/26 07:41:51;;;;;;;2.10;1.90;;;30.60;99.90;;;32.99;64.22;95220.00;2212988;56;25684;-51
2021/06/26 07:44:37;;;;;;;2.28;2.08;;;30.60;99.90;;;31.51;63.50;95218.00;2404426;55;25712;-51
2021/06/26 07:50:19;;;;;;;2.45;2.25;;;30.30;99.90;;;30.18;64.50;95204.00;2343732;56;32429;-53
2021/06/26 07:53:06;;;;;;;2.30;2.10;;;29.20;99.90;;;29.89;71.71;95208.00;2351256;56;26780;-53
2021/06/26 07:55:53;;;;;;;2.05;1.85;;;29.20;99.90;;;30.30;67.27;95206.00;2144187;57;27058;-53
2021/06/26 07:58:39;;;;;;;2.40;2.20;;;29.30;99.90;;;30.23;65.49;95203.00;2350535;56;25973;-53
2021/06/26 08:01:26;;;;;;;2.00;1.90;;;29.70;99.90;;;31.48;62.22;95205.00;2175527;56;26041;-51
2021/06/26 08:04:12;;;;;;;2.00;1.90;;;29.80;99.90;;;30.08;66.99;95201.00;2175946;56;27363;-51
2021/06/26 08:09:55;;;;;;;5.28;2.00;;;30.10;99.90;;;32.14;58.72;95193.00;2391544;55;32571;-53
2021/06/26 08:12:42;;;;;;;2.58;2.12;;;30.20;99.90;;;31.68;58.80;95190.00;2180066;56;25564;-53
2021/06/26 08:15:29;;;;;;;2.33;2.12;;;30.30;99.90;;;32.08;59.09;95194.00;2186300;55;25626;-53
2021/06/26 08:18:15;;;;;;;3.05;1.90;;;30.50;99.90;;;32.69;56.49;95183.00;2407555;55;26214;-53
2021/06/26 08:21:02;;;;;;;2.85;2.00;;;30.80;99.90;;;32.41;58.37;95179.00;2187079;56;25674;-51
2021/06/26 08:23:49;;;;;;;2.20;1.80;;;31.20;99.90;;;32.13;59.59;95184.00;2375749;56;27419;-51
2021/06/26 08:29:33;;;;;;;2.33;2.12;;;31.40;99.90;;;33.35;51.03;95188.00;2349069;56;33748;-53
2021/06/26 08:32:19;;;;;;;1.90;1.77;;;31.10;99.90;;;31.85;56.90;95185.00;2329238;57;25840;-51
2021/06/26 08:35:08;;;;;;;2.03;1.73;;;30.80;99.90;;;31.85;55.78;95183.00;2120387;57;27162;-51
2021/06/26 08:37:55;;;;;;;3.25;1.83;;;30.50;99.90;;;32.28;63.37;95186.00;2308214;57;25852;-51
2021/06/26 08:40:42;;;;;;;2.20;2.00;;;30.80;99.90;;;31.76;55.74;95176.00;2131397;58;25550;-50
2021/06/26 08:43:29;;;;;;;3.28;2.17;;;31.40;99.90;;;33.02;54.15;95176.00;2139752;58;25888;-50
2021/06/26 08:46:16;;;;;;;2.30;2.10;;;31.10;99.90;;;31.54;58.55;95176.00;2336209;57;25709;-51
2021/06/26 08:49:03;;;;;;;2.17;1.98;;;31.10;99.90;;;31.60;57.34;95173.00;2125900;58;26024;-50
2021/06/26 08:54:51;;;;;;;2.30;2.10;;;31.30;99.90;;;33.06;57.55;95166.00;2388477;55;33282;-53
2021/06/26 08:57:39;;;;;;;2.42;2.10;;;31.10;99.90;;;32.32;51.96;95170.00;2174374;55;25738;-52
2021/06/26 09:00:27;;;;;;;2.00;1.90;;;30.50;99.90;;;30.93;60.35;95174.00;2395974;56;25742;-53
2021/06/26 09:03:16;;;;;;;2.70;2.08;;;30.60;99.90;;;31.59;62.02;95163.00;2182789;56;26223;-50
2021/06/26 09:06:06;;;;;;;2.62;1.85;;;31.10;99.90;;;32.01;57.63;95176.00;2375155;55;25109;-50
2021/06/26 09:08:53;;;;;;;2.20;2.10;;;31.70;99.90;;;33.55;49.90;95167.00;2175755;55;27670;-50
2021/06/26 09:11:40;;;;;;;3.08;2.20;;;31.00;99.90;;;32.57;57.53;95170.00;2401588;55;25667;-50
2021/06/26 09:14:26;;;;;;;3.08;2.17;;;30.50;99.90;;;31.31;57.30;95169.00;2180940;56;25755;-50
2021/06/26 09:17:17;;;;;;;2.20;2.00;;;30.60;99.90;;;31.30;59.47;95167.00;2408063;55;25808;-50
2021/06/26 09:20:08;;;;;;;2.20;2.00;;;30.90;99.90;;;32.29;52.84;95165.00;2188676;56;25188;-50
2021/06/26 09:22:55;;;;;;;2.75;1.90;;;31.10;99.90;;;32.19;54.07;95161.00;2407482;55;25705;-50
2021/06/26 09:25:42;;;;;;;2.03;1.92;;;31.20;99.90;;;32.00;53.64;95165.00;2188087;56;25641;-50
2021/06/26 09:28:28;;;;;;;1.95;1.85;;;31.40;99.90;;;32.54;52.42;95157.00;2403891;55;25744;-50
2021/06/26 09:31:20;;;;;;;1.75;1.65;;;31.90;99.90;;;33.21;50.99;95158.00;2173618;56;25582;-50
2021/06/26 09:37:05;;;;;;;2.28;2.08;;;31.40;99.90;;;30.28;61.26;95149.00;2415507;55;34539;-52
2021/06/26 09:42:54;;;;;;;3.15;2.10;;;30.30;99.90;;;31.99;57.18;95142.00;2485715;52;33785;-52
2021/06/26 09:48:49;;;;;;;1.85;1.75;;;30.90;99.90;;;33.45;53.22;95133.00;2378492;55;33105;-51
2021/06/26 09:51:36;;;;;;;2.10;1.90;;;31.40;99.90;;;33.57;51.43;95144.00;2147706;57;25733;-50
2021/06/26 09:54:28;;;;;;;1.77;1.67;;;31.20;99.90;;;32.51;51.22;95144.00;2132390;59;26009;-50
2021/06/26 09:57:14;;;;;;;2.20;2.00;;;31.50;99.90;;;33.21;54.54;95135.00;2134326;57;25808;-50
2021/06/26 10:00:01;;;;;;;3.22;1.90;;;31.20;99.90;;;32.73;50.83;95137.00;2151497;57;25201;-50
2021/06/26 10:02:48;;;;;;;1.98;1.80;;;30.60;99.90;;;31.31;58.45;95134.00;2373272;57;25733;-50
2021/06/26 10:05:35;;;;;;;2.20;2.00;;;30.30;99.90;;;31.24;67.77;95126.00;2160703;57;25746;-50
2021/06/26 10:08:21;;;;;;;2.40;2.15;;;29.80;99.90;;;29.70;66.93;95132.00;2373298;57;25837;-50
2021/06/26 10:11:08;;;;;;;2.00;1.70;;;29.70;99.90;;;30.82;74.66;95127.00;2161156;56;25615;-50
2021/06/26 10:16:55;;;;;;;2.50;1.70;;;30.40;99.90;;;31.04;65.03;95135.00;2494959;53;33947;-52
2021/06/26 10:22:42;;;;;;;2.87;2.47;;;29.90;99.90;;;30.06;66.46;95121.00;2399371;55;32665;-52
2021/06/26 10:25:32;;;;;;;2.67;2.40;;;29.80;99.90;;;30.86;70.96;95125.00;2198011;55;25835;-52
2021/06/26 10:28:20;;;;;;;1.77;1.67;;;29.80;99.90;;;30.41;67.11;95124.00;2183695;54;25878;-52
2021/06/26 10:31:11;;;;;;;2.12;1.80;;;28.80;99.90;;;29.06;72.71;95116.00;2198603;54;25666;-52
2021/06/26 10:37:16;;;;;;;3.62;1.95;;;28.70;99.90;;;28.18;91.35;95109.00;2396499;55;34618;-52
2021/06/26 10:40:07;;;;;;;6.00;1.73;;;28.40;99.90;;;29.14;86.03;95113.00;2400209;56;26763;-51
2021/06/26 10:42:53;;;;;;;3.28;2.25;;;28.00;99.90;;;28.23;76.92;95103.00;2194611;55;26161;-52
2021/06/26 10:45:40;;;;;;;2.03;1.67;;;27.80;99.90;;;27.82;86.60;95115.00;2430979;55;26956;-52
2021/06/26 10:48:27;;;;;;;1.70;1.60;;;28.10;99.90;;;29.16;85.49;95116.00;2216674;56;27068;-51
2021/06/26 10:51:13;;;;;;;2.55;1.75;;;28.10;99.90;;;28.62;75.08;95113.00;2227138;56;26690;-52
2021/06/26 10:57:12;;;;;;;2.25;2.05;;;27.90;99.90;;;27.90;77.03;95109.00;2430095;54;34626;-52
2021/06/26 11:00:00;;;;;;;2.17;1.90;;;27.50;99.90;;;27.75;86.33;95110.00;2431648;55;26826;-52
2021/06/26 11:02:46;;;;;;;2.85;1.87;;;27.40;99.90;;;27.56;90.02;95117.00;2180457;55;26946;-52
2021/06/26 11:05:35;;;;;;;2.67;1.90;;;27.20;99.90;;;27.19;94.27;95115.00;2397635;55;26634;-52
2021/06/26 11:08:22;;;;;;;2.53;1.90;;;27.10;99.90;;;27.08;95.54;95113.00;2180598;56;26748;-51
2021/06/26 11:11:08;;;;;;;1.87;1.77;;;26.10;99.90;;;26.02;94.13;95124.00;2398654;55;27253;-51
2021/06/26 11:14:06;;;;;;;2.05;1.77;;;26.10;99.90;;;26.24;97.48;95113.00;2179384;56;26266;-51
2021/06/26 11:16:55;;;;;;;2.20;2.05;;;26.60;99.90;;;26.97;94.14;95117.00;2229744;55;27355;-52
2021/06/26 11:19:42;;;;;;;2.30;1.85;;;27.20;99.90;;;27.83;93.23;95120.00;2456001;54;26927;-52
2021/06/26 11:22:28;;;;;;;3.17;1.90;;;27.30;99.90;;;27.70;87.57;95112.00;2226808;56;26654;-51
2021/06/26 11:25:14;;;;;;;2.28;1.80;;;27.40;99.90;;;27.90;92.46;95109.00;2227043;56;26854;-51
2021/06/26 11:28:05;;;;;;;2.20;2.00;;;28.20;99.90;;;29.09;85.23;95108.00;2455173;55;26591;-52
2021/06/26 11:31:02;;;;;;;2.17;1.90;;;29.00;99.90;;;29.83;94.88;95105.00;2225621;56;27060;-52
2021/06/26 11:33:49;;;;;;;2.37;1.80;;;28.80;99.90;;;29.10;78.71;95106.00;2225440;56;26947;-52
2021/06/26 11:36:35;;;;;;;2.30;1.67;;;28.40;99.90;;;28.10;82.17;95100.00;2451758;55;27177;-52
2021/06/26 11:39:22;;;;;;;2.58;1.80;;;28.40;99.90;;;28.65;88.13;95105.00;2225662;56;27269;-51
2021/06/26 11:42:20;;;;;;;3.58;1.90;;;28.00;99.90;;;28.42;84.94;95103.00;2225018;55;27300;-52
2021/06/26 11:45:15;;;;;;;2.15;1.95;;;26.90;99.90;;;26.70;94.32;95101.00;2232659;56;26657;-52
2021/06/26 11:48:09;;;;;;;1.85;1.75;;;27.40;99.90;;;27.80;99.35;95101.00;2466776;55;25788;-52
2021/06/26 11:56:52;;;;;;;2.20;1.92;;;26.10;99.90;;;25.47;100.00;95092.00;2420054;54;33700;-51
2021/06/26 12:02:45;;;;;;;4.18;2.10;;;25.40;99.90;;;25.81;100.00;95085.00;2548345;52;33371;-51
2021/06/26 12:05:32;;;;;;;2.67;1.90;;;25.70;99.90;;;25.91;100.00;95084.00;2262891;55;26561;-51
2021/06/26 12:08:20;;;;;;;1.80;1.70;;;26.10;99.90;;;26.23;100.00;95089.00;2471823;53;26134;-51
2021/06/26 12:11:09;;;;;;;2.20;1.98;;;26.30;99.90;;;26.18;100.00;95089.00;2236565;54;26665;-52
2021/06/26 12:13:59;;;;;;;2.20;2.00;;;26.50;99.90;;;26.32;100.00;95075.00;2482673;53;26800;-51
2021/06/26 12:16:45;;;;;;;2.10;2.00;;;26.80;99.90;;;26.60;100.00;95077.00;2264894;53;27153;-51
2021/06/26 12:19:33;;;;;;;2.00;1.90;;;27.10;99.90;;;27.34;99.35;95081.00;2498200;53;27158;-51
2021/06/26 12:22:23;;;;;;;2.50;2.20;;;26.80;99.90;;;26.98;100.00;95084.00;2263836;53;27254;-51
2021/06/26 12:25:14;;;;;;;4.40;2.00;;;26.80;99.90;;;26.68;100.00;95082.00;2497997;53;26565;-52
2021/06/26 12:28:02;;;;;;;2.42;1.90;;;26.50;99.90;;;26.34;100.00;95086.00;2263942;53;26719;-51
2021/06/26 12:30:59;;;;;;;2.50;2.10;;;26.90;99.90;;;26.91;100.00;95083.00;2237786;54;26569;-52
2021/06/26 12:33:47;;;;;;;2.25;2.05;;;27.10;99.90;;;27.04;97.68;95079.00;2255962;53;26681;-51
2021/06/26 12:36:34;;;;;;;2.30;2.10;;;27.00;99.90;;;26.85;100.00;95079.00;2264816;53;26625;-51
2021/06/26 12:39:24;;;;;;;2.40;2.10;;;26.80;99.90;;;26.86;100.00;95078.00;2263768;54;26877;-51
2021/06/26 12:42:12;;;;;;;2.10;1.92;;;27.20;99.90;;;27.10;92.69;95076.00;2263775;53;27456;-51
2021/06/26 12:44:59;;;;;;;2.37;2.05;;;27.10;99.90;;;27.37;97.09;95072.00;2498805;53;27224;-51
2021/06/26 12:47:56;;;;;;;2.50;2.30;;;27.20;99.90;;;27.07;99.23;95061.00;2263469;53;27349;-51
2021/06/26 12:51:00;;;;;;;2.00;1.80;;;27.00;99.90;;;27.03;93.87;95059.00;2263794;54;26873;-51
2021/06/26 12:53:49;;;;;;;2.30;2.10;;;26.80;99.90;;;26.57;98.57;95059.00;2264288;54;26762;-51
2021/06/26 12:56:37;;;;;;;2.37;1.90;;;27.20;99.90;;;27.19;97.02;95052.00;2263826;54;26569;-51
2021/06/26 12:59:33;;;;;;;2.53;2.10;;;27.50;99.90;;;27.76;94.94;95053.00;2263639;54;26881;-52
2021/06/26 13:02:20;;;;;;;3.42;1.95;;;27.20;99.90;;;27.25;100.00;95060.00;2263774;54;26685;-52
2021/06/26 13:08:20;;;;;;;1.98;1.77;;;27.20;99.90;;;27.34;92.82;95049.00;2423178;54;34662;-51
2021/06/26 13:11:06;;;;;;;2.05;1.95;;;27.30;99.90;;;27.42;85.39;95051.00;2184418;57;26165;-51
2021/06/26 13:13:52;;;;;;;2.20;2.00;;;26.80;99.90;;;26.88;89.50;95053.00;2403311;55;27323;-51
2021/06/26 13:16:41;;;;;;;2.22;2.00;;;27.00;99.90;;;27.11;94.11;95045.00;2180380;56;26858;-51
2021/06/26 13:19:28;;;;;;;2.22;2.03;;;27.10;99.90;;;27.29;88.25;95044.00;2161387;56;26687;-51
2021/06/26 13:22:15;;;;;;;2.33;1.95;;;27.30;99.90;;;27.47;93.91;95048.00;2161571;56;26721;-51
2021/06/26 13:25:01;;;;;;;2.30;2.00;;;27.30;99.90;;;27.38;93.35;95051.00;2171330;56;26652;-51
2021/06/26 13:27:48;;;;;;;2.30;2.10;;;27.00;99.90;;;26.65;93.60;95049.00;2186880;55;26731;-52
2021/06/26 13:30:35;;;;;;;2.40;2.20;;;26.60;99.90;;;26.43;100.00;95034.00;2186850;55;26994;-51
2021/06/26 13:33:21;;;;;;;2.75;2.17;;;25.60;99.90;;;25.37;100.00;95050.00;2182151;55;27342;-51
2021/06/26 13:36:08;;;;;;;3.37;2.08;;;24.90;99.90;;;24.83;100.00;95048.00;2405654;55;26716;-51
2021/06/26 13:38:54;;;;;;;2.42;2.22;;;24.40;99.90;;;24.38;100.00;95042.00;2190882;55;27492;-51